Time,TemperatureF,DewpointF,PressureIn,WindDirection,WindDirectionDegrees,WindSpeedMPH,WindSpeedGustMPH,Humidity,HourlyPrecipIn,Conditions,Clouds,dailyrainin,SoftwareType,DateUTC
2013-01-11 00:10:00,35.1,34.3,29.71,SE,124,1.0,1.0,97,0.00,,,0.00,Wunderground v.1.15,2013-01-11 06:10:00,
2013-01-11 00:20:00,35.6,34.8,29.71,SSE,160,1.0,1.0,97,0.00,,,0.00,Wunderground v.1.15,2013-01-11 06:20:00,
2013-01-11 00:30:00,35.7,34.9,29.71,South,169,1.0,1.0,97,0.00,,,0.00,Wunderground v.1.15,2013-01-11 06:30:00,
2013-01-11 00:40:00,36.2,35.4,29.70,SSE,148,3.0,3.0,97,0.00,,,0.00,Wunderground v.1.15,2013-01-11 06:40:00,
2013-01-11 00:50:00,36.2,35.4,29.71,SSE,165,4.0,4.0,97,0.00,,,0.00,Wunderground v.1.15,2013-01-11 06:50:00,
2013-01-11 01:00:00,36.4,35.6,29.71,SSE,152,3.0,3.0,97,0.00,,,0.00,Wunderground v.1.15,2013-01-11 07:00:00,
2013-01-11 01:10:00,36.9,36.1,29.70,SE,128,1.0,1.0,97,0.00,,,0.00,Wunderground v.1.15,2013-01-11 07:10:00,
2013-01-11 01:20:00,36.9,36.1,29.69,SE,126,0.0,1.0,97,0.00,,,0.00,Wunderground v.1.15,2013-01-11 07:20:00,
2013-01-11 01:30:00,36.9,36.1,29.68,SE,127,1.0,1.0,97,0.00,,,0.00,Wunderground v.1.15,2013-01-11 07:30:00,
2013-01-11 01:40:00,36.8,36.0,29.67,ESE,107,1.0,2.0,97,0.00,,,0.00,Wunderground v.1.15,2013-01-11 07:40:00,
2013-01-11 01:50:00,36.8,36.0,29.67,SE,125,2.0,2.0,97,0.00,,,0.00,Wunderground v.1.15,2013-01-11 07:50:00,
2013-01-11 02:00:00,36.8,36.0,29.67,SE,126,0.0,0.0,97,0.00,,,0.00,Wunderground v.1.15,2013-01-11 08:00:00,
2013-01-11 02:10:00,36.9,36.1,29.66,East,100,1.0,1.0,97,0.00,,,0.00,Wunderground v.1.15,2013-01-11 08:10:00,
2013-01-11 02:20:00,36.8,36.0,29.65,East,101,1.0,1.0,97,0.00,,,0.00,Wunderground v.1.15,2013-01-11 08:20:00,
2013-01-11 02:30:00,36.7,35.9,29.65,ESE,120,1.0,1.0,97,0.00,,,0.00,Wunderground v.1.15,2013-01-11 08:30:00,
2013-01-11 02:40:00,36.8,36.0,29.64,ESE,115,0.0,0.0,97,0.00,,,0.00,Wunderground v.1.15,2013-01-11 08:40:00,
2013-01-11 02:50:00,37.2,36.4,29.63,ESE,111,1.0,1.0,97,0.00,,,0.00,Wunderground v.1.15,2013-01-11 08:50:00,
2013-01-11 03:00:00,37.3,36.5,29.63,ESE,111,1.0,2.0,97,0.00,,,0.00,Wunderground v.1.15,2013-01-11 09:00:00,
2013-01-11 03:10:00,37.4,36.6,29.62,East,92,1.0,1.0,97,0.00,,,0.00,Wunderground v.1.15,2013-01-11 09:10:00,
2013-01-11 03:20:00,37.5,36.7,29.60,SE,135,1.0,1.0,97,0.00,,,0.00,Wunderground v.1.15,2013-01-11 09:20:00,
2013-01-11 03:30:00,37.8,37.0,29.60,SE,131,2.0,2.0,97,0.00,,,0.00,Wunderground v.1.15,2013-01-11 09:30:00,
2013-01-11 03:40:00,37.9,37.1,29.61,ESE,117,2.0,2.0,97,0.00,,,0.00,Wunderground v.1.15,2013-01-11 09:40:00,
2013-01-11 03:50:00,37.9,37.1,29.60,ESE,119,0.0,0.0,97,0.00,,,0.00,Wunderground v.1.15,2013-01-11 09:50:00,
2013-01-11 04:00:00,37.7,36.9,29.58,ESE,118,0.0,1.0,97,0.00,,,0.00,Wunderground v.1.15,2013-01-11 10:00:00,
2013-01-11 04:10:00,37.5,36.7,29.58,ESE,109,0.0,1.0,97,0.00,,,0.00,Wunderground v.1.15,2013-01-11 10:10:00,
2013-01-11 04:20:00,37.9,37.1,29.57,East,96,1.0,1.0,97,0.00,,,0.00,Wunderground v.1.15,2013-01-11 10:20:00,
2013-01-11 04:30:00,38.2,37.4,29.56,ESE,114,0.0,1.0,97,0.00,,,0.00,Wunderground v.1.15,2013-01-11 10:30:00,
2013-01-11 04:40:00,38.5,37.7,29.56,ESE,122,0.0,0.0,97,0.00,,,0.00,Wunderground v.1.15,2013-01-11 10:40:00,
2013-01-11 04:50:00,38.8,38.0,29.56,ESE,111,1.0,1.0,97,0.00,,,0.00,Wunderground v.1.15,2013-01-11 10:50:00,
2013-01-11 05:00:00,38.9,38.1,29.55,SE,124,1.0,3.0,97,0.00,,,0.00,Wunderground v.1.15,2013-01-11 11:00:00,
2013-01-11 05:10:00,38.6,37.8,29.55,East,91,1.0,1.0,97,0.00,,,0.00,Wunderground v.1.15,2013-01-11 11:10:00,
2013-01-11 05:20:00,38.7,37.9,29.55,ESE,119,1.0,2.0,97,0.00,,,0.00,Wunderground v.1.15,2013-01-11 11:20:00,
2013-01-11 05:30:00,39.2,38.4,29.53,SE,144,2.0,2.0,97,0.00,,,0.00,Wunderground v.1.15,2013-01-11 11:30:00,
2013-01-11 05:40:00,39.1,38.3,29.53,ESE,113,1.0,1.0,97,0.00,,,0.00,Wunderground v.1.15,2013-01-11 11:40:00,
2013-01-11 05:50:00,38.9,38.1,29.53,ESE,122,1.0,1.0,97,0.00,,,0.00,Wunderground v.1.15,2013-01-11 11:50:00,
2013-01-11 06:00:00,38.7,37.9,29.53,SE,138,1.0,4.0,97,0.00,,,0.00,Wunderground v.1.15,2013-01-11 12:00:00,
2013-01-11 06:10:00,39.0,38.2,29.52,ESE,115,4.0,4.0,97,0.00,,,0.00,Wunderground v.1.15,2013-01-11 12:10:00,
2013-01-11 06:20:00,38.9,38.1,29.51,East,91,2.0,3.0,97,0.00,,,0.00,Wunderground v.1.15,2013-01-11 12:20:00,
2013-01-11 06:30:00,38.8,38.0,29.51,SE,128,3.0,3.0,97,0.00,,,0.00,Wunderground v.1.15,2013-01-11 12:30:00,
2013-01-11 06:40:00,38.8,38.0,29.51,SE,138,4.0,4.0,97,0.00,,,0.00,Wunderground v.1.15,2013-01-11 12:40:00,
2013-01-11 06:50:00,38.6,37.8,29.51,ESE,117,2.0,3.0,97,0.00,,,0.00,Wunderground v.1.15,2013-01-11 12:50:00,
2013-01-11 07:00:00,38.5,37.7,29.51,SE,139,2.0,5.0,97,0.00,,,0.00,Wunderground v.1.15,2013-01-11 13:00:00,
2013-01-11 07:10:00,38.5,37.7,29.51,ENE,69,2.0,2.0,97,0.00,,,0.00,Wunderground v.1.15,2013-01-11 13:10:00,
2013-01-11 07:20:00,38.3,37.5,29.51,SE,125,1.0,1.0,97,0.00,,,0.00,Wunderground v.1.15,2013-01-11 13:20:00,
2013-01-11 07:30:00,38.1,37.3,29.51,SE,135,1.0,1.0,97,0.00,,,0.00,Wunderground v.1.15,2013-01-11 13:30:00,
2013-01-11 07:40:00,38.2,37.4,29.51,ESE,123,2.0,2.0,97,0.00,,,0.00,Wunderground v.1.15,2013-01-11 13:40:00,
2013-01-11 07:50:00,37.9,37.1,29.51,SE,145,3.0,5.0,97,0.00,,,0.00,Wunderground v.1.15,2013-01-11 13:50:00,
2013-01-11 08:00:00,37.8,37.0,29.51,SSE,149,5.0,5.0,97,0.00,,,0.00,Wunderground v.1.15,2013-01-11 14:00:00,
2013-01-11 08:10:00,38.6,37.8,29.51,SE,141,5.0,6.0,97,0.00,,,0.00,Wunderground v.1.15,2013-01-11 14:10:00,
2013-01-11 08:20:00,38.7,37.9,29.50,South,169,5.0,5.0,97,0.00,,,0.00,Wunderground v.1.15,2013-01-11 14:20:00,
2013-01-11 08:30:00,39.4,38.6,29.50,SE,139,7.0,8.0,97,0.00,,,0.00,Wunderground v.1.15,2013-01-11 14:30:00,
2013-01-11 08:40:00,39.7,38.9,29.51,South,184,6.0,7.0,97,0.00,,,0.00,Wunderground v.1.15,2013-01-11 14:40:00,
2013-01-11 08:50:00,40.0,39.2,29.50,South,176,7.0,9.0,97,0.00,,,0.00,Wunderground v.1.15,2013-01-11 14:50:00,
2013-01-11 09:00:00,40.1,39.3,29.50,South,177,6.0,6.0,97,0.00,,,0.00,Wunderground v.1.15,2013-01-11 15:00:00,
2013-01-11 09:10:00,40.3,39.0,29.50,South,184,4.0,4.0,95,0.00,,,0.00,Wunderground v.1.15,2013-01-11 15:10:00,
2013-01-11 09:20:00,40.6,39.3,29.50,South,190,2.0,4.0,95,0.00,,,0.00,Wunderground v.1.15,2013-01-11 15:20:00,
2013-01-11 09:30:00,40.3,38.4,29.50,SSE,163,3.0,4.0,93,0.00,,,0.00,Wunderground v.1.15,2013-01-11 15:30:00,
2013-01-11 09:40:00,40.3,37.9,29.50,South,170,4.0,10.0,91,0.00,,,0.00,Wunderground v.1.15,2013-01-11 15:40:00,
2013-01-11 09:50:00,40.8,37.8,29.50,South,190,6.0,7.0,89,0.00,,,0.00,Wunderground v.1.15,2013-01-11 15:50:00,
2013-01-11 10:00:00,41.1,37.8,29.49,SSW,194,7.0,7.0,88,0.00,,,0.00,Wunderground v.1.15,2013-01-11 16:00:00,
2013-01-11 10:10:00,41.1,37.5,29.49,South,180,6.0,7.0,87,0.00,,,0.00,Wunderground v.1.15,2013-01-11 16:10:00,
2013-01-11 10:20:00,41.2,37.6,29.49,SSE,160,6.0,6.0,87,0.00,,,0.00,Wunderground v.1.15,2013-01-11 16:20:00,
2013-01-11 10:30:00,41.3,37.4,29.49,SSE,156,6.0,6.0,86,0.00,,,0.00,Wunderground v.1.15,2013-01-11 16:30:00,
2013-01-11 10:40:00,41.1,37.2,29.49,SE,136,7.0,7.0,86,0.00,,,0.00,Wunderground v.1.15,2013-01-11 16:40:00,
2013-01-11 10:50:00,41.1,37.5,29.48,South,172,7.0,7.0,87,0.00,,,0.00,Wunderground v.1.15,2013-01-11 16:50:00,
2013-01-11 11:00:00,41.2,37.6,29.49,SSE,160,6.0,8.0,87,0.00,,,0.00,Wunderground v.1.15,2013-01-11 17:00:00,
2013-01-11 11:10:00,41.5,37.9,29.48,South,179,6.0,6.0,87,0.00,,,0.00,Wunderground v.1.15,2013-01-11 17:10:00,
2013-01-11 11:20:00,42.0,38.1,29.47,South,186,6.0,6.0,86,0.00,,,0.00,Wunderground v.1.15,2013-01-11 17:20:00,
2013-01-11 11:30:00,42.7,38.5,29.47,SE,134,6.0,7.0,85,0.00,,,0.00,Wunderground v.1.15,2013-01-11 17:30:00,
2013-01-11 11:40:00,43.6,38.8,29.46,SSE,156,9.0,11.0,83,0.00,,,0.00,Wunderground v.1.15,2013-01-11 17:40:00,
2013-01-11 11:50:00,43.9,38.8,29.46,South,183,10.0,10.0,82,0.00,,,0.00,Wunderground v.1.15,2013-01-11 17:50:00,
2013-01-11 12:00:00,44.1,39.0,29.44,SE,146,9.0,9.0,82,0.00,,,0.00,Wunderground v.1.15,2013-01-11 18:00:00,
2013-01-11 12:10:00,44.0,38.9,29.44,SSE,155,6.0,6.0,82,0.00,,,0.00,Wunderground v.1.15,2013-01-11 18:10:00,
2013-01-11 12:20:00,43.6,38.5,29.44,SSE,159,6.0,6.0,82,0.00,,,0.00,Wunderground v.1.15,2013-01-11 18:20:00,
2013-01-11 12:30:00,43.3,38.2,29.43,South,176,7.0,7.0,82,0.00,,,0.00,Wunderground v.1.15,2013-01-11 18:30:00,
2013-01-11 12:40:00,43.5,38.4,29.43,South,174,8.0,8.0,82,0.00,,,0.00,Wunderground v.1.15,2013-01-11 18:40:00,
2013-01-11 12:50:00,43.7,38.6,29.41,SSE,154,7.0,8.0,82,0.00,,,0.00,Wunderground v.1.15,2013-01-11 18:50:00,
2013-01-11 13:00:00,43.8,38.7,29.41,SSE,152,8.0,8.0,82,0.00,,,0.00,Wunderground v.1.15,2013-01-11 19:00:00,
2013-01-11 13:10:00,44.0,38.5,29.40,SSW,195,9.0,10.0,81,0.00,,,0.00,Wunderground v.1.15,2013-01-11 19:10:00,
2013-01-11 13:20:00,44.0,38.5,29.40,SSE,149,9.0,9.0,81,0.00,,,0.00,Wunderground v.1.15,2013-01-11 19:20:00,
2013-01-11 13:30:00,44.3,39.2,29.39,SSE,158,10.0,10.0,82,0.00,,,0.00,Wunderground v.1.15,2013-01-11 19:30:00,
2013-01-11 13:40:00,44.7,38.9,29.39,South,187,10.0,10.0,80,0.00,,,0.00,Wunderground v.1.15,2013-01-11 19:40:00,
2013-01-11 23:20:00,25.5,18.4,29.87,WNW,297,17.0,17.0,74,0.00,,,0.00,Wunderground v.1.15,2013-01-12 05:20:00,
2013-01-11 23:30:00,25.2,18.4,29.89,WNW,282,13.0,13.0,75,0.00,,,0.00,Wunderground v.1.15,2013-01-12 05:30:00,
2013-01-11 23:40:00,25.0,18.5,29.91,WNW,298,10.0,12.0,76,0.00,,,0.00,Wunderground v.1.15,2013-01-12 05:40:00,
2013-01-11 23:50:00,24.6,17.5,29.91,WNW,293,10.0,10.0,74,0.00,,,0.00,Wunderground v.1.15,2013-01-12 05:50:00,